Time;durP1;ratioP1;P1;durP2;ratioP2;P2;SDS_P1;SDS_P2;PMS_P1;PMS_P2;Temp;Humidity;BMP_temperature;BMP_pressure;BME280_temperature;BME280_humidity;BME280_pressure;Samples;Min_cycle;Max_cycle;Signal;HPM_P1;HPM_P2
2022/06/23 00:02:26;;;;;;;;;15.50;15.00;;;;;25.50;84.76;100687.72;5075755;28;45404;-78
2022/06/23 00:04:57;;;;;;;;;18.50;16.50;;;;;25.50;87.86;100688.59;5075740;28;45268;-78
2022/06/23 00:07:27;;;;;;;;;17.50;16.25;;;;;25.45;92.23;100690.47;5078351;28;45336;-78
2022/06/23 00:10:11;;;;;;;;;19.25;17.50;;;;;25.41;96.59;100687.91;5079068;27;46424;-78
2022/06/23 00:12:40;;;;;;;;;17.75;15.00;;;;;25.32;97.98;100676.50;5079182;28;45351;-78
2022/06/23 00:15:05;;;;;;;;;19.75;16.75;;;;;25.26;99.46;100684.59;5079139;27;45364;-79
2022/06/23 00:17:42;;;;;;;;;18.00;15.00;;;;;25.16;99.76;100688.31;5079625;28;45324;-79
2022/06/23 00:20:41;;;;;;;;;17.25;15.75;;;;;25.05;100.00;100696.47;5078661;28;45704;-80
2022/06/23 00:23:12;;;;;;;;;20.00;19.25;;;;;25.00;100.00;100696.50;5046977;27;45321;-81
2022/06/23 00:26:00;;;;;;;;;22.00;20.00;;;;;24.97;100.00;100682.47;5079056;27;45410;-80
2022/06/23 00:28:28;;;;;;;;;24.00;22.50;;;;;24.98;100.00;100676.25;5079183;27;45344;-79
2022/06/23 00:31:00;;;;;;;;;21.75;21.50;;;;;24.97;100.00;100672.75;5079260;27;46163;-80
2022/06/23 00:33:30;;;;;;;;;26.50;24.00;;;;;24.94;100.00;100675.44;5079676;28;45334;-79
2022/06/23 00:35:58;;;;;;;;;22.75;22.75;;;;;24.92;100.00;100673.72;5082288;27;45389;-78
2022/06/23 00:38:28;;;;;;;;;24.50;22.75;;;;;24.86;100.00;100664.13;5086580;28;45389;-78
2022/06/23 00:40:54;;;;;;;;;27.50;25.50;;;;;24.83;100.00;100662.41;5065581;28;46106;-79
2022/06/23 00:43:21;;;;;;;;;27.00;22.00;;;;;24.76;100.00;100649.28;5079937;28;45954;-78
2022/06/23 00:46:06;;;;;;;;;28.25;24.75;;;;;24.75;100.00;100658.13;5080403;28;45334;-79
2022/06/23 00:48:31;;;;;;;;;27.00;25.75;;;;;24.72;100.00;100659.06;5079736;27;45339;-78
2022/06/23 00:51:20;;;;;;;;;26.00;25.00;;;;;24.71;100.00;100662.59;5060091;28;48075;-78
2022/06/23 00:53:55;;;;;;;;;23.75;22.75;;;;;24.67;100.00;100653.81;5078604;28;45423;-78
2022/06/23 00:56:45;;;;;;;;;27.75;21.00;;;;;24.65;100.00;100660.00;5078506;27;45286;-78
2022/06/23 00:59:20;;;;;;;;;23.75;22.00;;;;;24.64;100.00;100647.66;5078414;28;45374;-78
2022/06/23 01:02:24;;;;;;;;;20.75;20.25;;;;;24.55;100.00;100651.34;5078302;28;46496;-78
2022/06/23 01:05:05;;;;;;;;;21.25;19.00;;;;;24.51;100.00;100660.22;5046518;28;45842;-78
2022/06/23 01:07:46;;;;;;;;;21.75;19.50;;;;;24.49;100.00;100659.38;5078936;27;45329;-78
2022/06/23 01:10:43;;;;;;;;;23.50;22.50;;;;;24.42;100.00;100651.53;5078372;27;45319;-78
2022/06/23 01:13:30;;;;;;;;;20.50;20.00;;;;;24.39;100.00;100662.16;5077992;28;46649;-79
2022/06/23 01:16:15;;;;;;;;;18.25;18.25;;;;;24.32;100.00;100656.97;5059901;28;45727;-77
2022/06/23 01:19:08;;;;;;;;;22.00;20.50;;;;;24.29;100.00;100654.41;5077986;27;45761;-78
2022/06/23 01:21:42;;;;;;;;;18.50;18.00;;;;;24.23;100.00;100640.34;5078638;27;45324;-77
2022/06/23 01:24:17;;;;;;;;;25.25;23.25;;;;;24.23;100.00;100647.44;5077447;28;45499;-77
2022/06/23 01:27:00;;;;;;;;;20.25;20.25;;;;;24.16;100.00;100641.34;5078022;28;45862;-77
2022/06/23 01:29:43;;;;;;;;;18.00;16.25;;;;;24.16;100.00;100656.31;5078792;28;45421;-77
2022/06/23 01:32:08;;;;;;;;;20.75;19.00;;;;;24.15;100.00;100636.94;5081690;28;45356;-77
2022/06/23 01:34:49;;;;;;;;;19.75;18.25;;;;;24.15;100.00;100636.06;5078852;28;45427;-77
2022/06/23 01:37:30;;;;;;;;;20.75;18.00;;;;;24.08;100.00;100627.38;5078013;27;45231;-77
2022/06/23 01:40:11;;;;;;;;;23.75;21.75;;;;;24.08;100.00;100641.44;5078365;28;45374;-79
2022/06/23 01:42:47;;;;;;;;;21.25;20.50;;;;;24.07;100.00;100634.41;5080480;28;45416;-79
2022/06/23 01:45:43;;;;;;;;;20.50;20.50;;;;;24.06;100.00;100640.59;5060391;28;45735;-79
2022/06/23 01:48:51;;;;;;;;;20.50;19.00;;;;;23.92;100.00;100624.88;5077253;28;45817;-79
2022/06/23 01:51:28;;;;;;;;;20.75;20.00;;;;;23.92;100.00;100624.00;5077347;28;45374;-79
2022/06/23 01:54:07;;;;;;;;;22.75;21.25;;;;;23.87;100.00;100637.28;5077810;28;45432;-80
2022/06/23 01:56:36;;;;;;;;;23.00;20.75;;;;;23.77;100.00;100630.38;5077564;28;45447;-79
2022/06/23 01:59:20;;;;;;;;;22.25;19.75;;;;;23.69;100.00;100619.91;5077652;28;45868;-79
2022/06/23 02:02:06;;;;;;;;;25.25;21.00;;;;;23.65;100.00;100628.75;5077310;27;45335;-79
2022/06/23 02:04:59;;;;;;;;;23.50;22.75;;;;;23.63;100.00;100622.63;5077855;27;45374;-79
2022/06/23 02:07:54;;;;;;;;;24.75;20.00;;;;;23.60;100.00;100626.19;5077086;28;46568;-79
2022/06/23 02:10:41;;;;;;;;;20.00;17.75;;;;;23.61;100.00;100627.94;5074229;28;45990;-80
2022/06/23 02:13:29;;;;;;;;;20.50;18.75;;;;;23.61;100.00;100629.69;5077746;27;45410;-81
2022/06/23 02:16:25;;;;;;;;;21.75;21.00;;;;;23.60;100.00;100635.88;5078305;27;45423;-79
2022/06/23 02:19:23;;;;;;;;;24.00;21.25;;;;;23.58;100.00;100627.97;5082284;28;46347;-78
2022/06/23 02:22:02;;;;;;;;;24.25;21.75;;;;;23.61;100.00;100630.59;5081933;28;45847;-77
2022/06/23 02:24:52;;;;;;;;;24.00;23.75;;;;;23.62;100.00;100620.88;5077705;28;45346;-77
2022/06/23 02:27:29;;;;;;;;;26.25;21.50;;;;;23.60;100.00;100625.28;5077314;28;45414;-78
2022/06/23 02:30:33;;;;;;;;;20.75;20.00;;;;;23.60;100.00;100623.53;5076215;28;45409;-77
2022/06/23 02:32:58;;;;;;;;;22.50;20.25;;;;;23.61;100.00;100621.75;5058255;28;45699;-78
2022/06/23 02:35:35;;;;;;;;;25.50;21.50;;;;;23.60;100.00;100620.91;5076760;27;45438;-79
2022/06/23 02:38:12;;;;;;;;;19.50;18.75;;;;;23.69;100.00;100619.03;5077526;28;45400;-79
2022/06/23 02:40:43;;;;;;;;;25.75;22.00;;;;;23.74;100.00;100620.72;5076692;28;46146;-79
2022/06/23 02:43:12;;;;;;;;;24.00;21.75;;;;;23.79;100.00;100618.00;5076661;28;45256;-79
2022/06/23 02:45:49;;;;;;;;;24.75;22.00;;;;;23.80;100.00;100619.75;5076927;28;45408;-78
2022/06/23 02:48:51;;;;;;;;;23.50;22.50;;;;;23.80;100.00;100619.75;5077231;28;45541;-79
2022/06/23 02:51:46;;;;;;;;;21.75;21.75;;;;;23.79;100.00;100613.63;5058614;28;47693;-77
2022/06/23 02:54:34;;;;;;;;;26.75;22.50;;;;;23.79;100.00;100610.97;5076320;28;45865;-78
2022/06/23 02:57:20;;;;;;;;;21.75;21.75;;;;;23.72;100.00;100611.94;5076570;28;45268;-77
2022/06/23 03:00:00;;;;;;;;;26.50;25.00;;;;;23.72;100.00;100614.56;5076798;28;45366;-77
2022/06/23 03:02:41;;;;;;;;;27.50;24.75;;;;;23.70;100.00;100613.75;5076268;27;46314;-79
2022/06/23 03:05:22;;;;;;;;;27.25;23.25;;;;;23.66;100.00;100606.72;5076361;28;45373;-79
2022/06/23 03:07:58;;;;;;;;;23.00;22.50;;;;;23.75;100.00;100616.31;5085252;28;45387;-79
2022/06/23 03:10:51;;;;;;;;;25.50;23.25;;;;;23.75;100.00;100622.47;5083147;27;45312;-79
2022/06/23 03:13:34;;;;;;;;;27.50;24.50;;;;;23.72;100.00;100614.56;5077135;28;46725;-80
2022/06/23 03:16:02;;;;;;;;;24.00;22.25;;;;;23.80;100.00;100619.75;5076725;28;45876;-80
2022/06/23 03:18:41;;;;;;;;;23.25;21.25;;;;;23.85;100.00;100622.34;5076874;28;45397;-81
2022/06/23 03:21:18;;;;;;;;;25.00;25.00;;;;;23.87;100.00;100625.84;5079947;27;45250;-81
2022/06/23 03:23:53;;;;;;;;;26.25;25.25;;;;;23.86;100.00;100632.91;5078066;28;46091;-81
2022/06/23 03:26:42;;;;;;;;;27.25;25.75;;;;;23.81;100.00;100625.03;5076217;28;45912;-81
2022/06/23 03:29:08;;;;;;;;;30.25;27.00;;;;;23.83;100.00;100640.88;5076128;28;45355;-80
2022/06/23 03:32:05;;;;;;;;;27.50;26.00;;;;;23.80;100.00;100640.91;5076785;27;45351;-80
2022/06/23 03:34:46;;;;;;;;;10.50;10.50;;;;;23.80;100.00;100633.88;5075322;28;46659;-80
2022/06/23 03:37:24;;;;;;;;;10.50;10.50;;;;;23.78;100.00;100648.88;5075832;28;45690;-80
2022/06/23 03:43:12;;;;;;;;;2.75;2.75;;;;;23.54;100.00;100643.88;5079561;28;45292;-80
2022/06/23 03:46:16;;;;;;;;;4.00;3.00;;;;;23.50;100.00;100657.13;5061448;28;47878;-80
2022/06/23 03:48:56;;;;;;;;;7.75;2.50;;;;;23.40;100.00;100666.03;5079282;27;45768;-80
2022/06/23 03:51:33;;;;;;;;;4.00;2.75;;;;;23.27;100.00;100665.31;5079438;28;45327;-79
2022/06/23 03:54:10;;;;;;;;;3.25;2.00;;;;;23.18;100.00;100662.72;5079871;27;45474;-79
2022/06/23 03:56:49;;;;;;;;;3.00;2.25;;;;;23.18;100.00;100673.28;5086928;27;46392;-79
2022/06/23 03:59:28;;;;;;;;;2.50;2.50;;;;;23.10;100.00;100669.84;5088077;28;45185;-80
2022/06/23 04:02:01;;;;;;;;;4.00;2.75;;;;;23.13;100.00;100675.97;5080684;28;45296;-79
2022/06/23 04:04:46;;;;;;;;;3.75;3.50;;;;;23.14;100.00;100682.13;5062085;28;45576;-78
2022/06/23 04:07:47;;;;;;;;;2.00;2.00;;;;;23.17;100.00;100685.59;5079059;28;46696;-79
2022/06/23 04:10:20;;;;;;;;;6.25;5.50;;;;;23.18;100.00;100682.06;5045960;27;45416;-79
2022/06/23 04:12:51;;;;;;;;;3.50;3.50;;;;;23.22;100.00;100687.38;5079357;28;45426;-81
2022/06/23 04:15:28;;;;;;;;;4.00;4.00;;;;;23.17;100.00;100688.25;5079174;28;45324;-80
2022/06/23 04:18:01;;;;;;;;;6.75;4.00;;;;;23.13;100.00;100689.19;5078996;27;46429;-80
2022/06/23 04:20:32;;;;;;;;;3.75;3.25;;;;;23.08;100.00;100701.53;5078649;28;45616;-79
2022/06/23 04:23:15;;;;;;;;;4.75;4.75;;;;;22.95;100.00;100690.22;5079091;28;45373;-81
2022/06/23 04:25:49;;;;;;;;;6.00;3.25;;;;;22.95;100.00;100703.41;5079517;27;45490;-80
2022/06/23 04:28:23;;;;;;;;;3.00;3.00;;;;;22.93;100.00;100699.03;5078978;28;46545;-80
2022/06/23 04:30:50;;;;;;;;;4.00;3.00;;;;;22.85;100.00;100699.09;5078435;27;45426;-80
2022/06/23 04:33:20;;;;;;;;;3.00;3.00;;;;;22.83;100.00;100720.25;5080345;28;45334;-79
2022/06/23 04:35:52;;;;;;;;;4.50;3.00;;;;;22.75;100.00;100718.53;5079442;27;45625;-80
2022/06/23 04:38:23;;;;;;;;;4.00;3.00;;;;;22.66;100.00;100720.38;5078425;28;45489;-79
2022/06/23 04:40:57;;;;;;;;;4.50;3.50;;;;;22.47;100.00;100697.59;5079045;28;45390;-80
2022/06/23 04:43:41;;;;;;;;;3.50;1.00;;;;;22.59;100.00;100709.84;5082546;27;45329;-79
2022/06/23 04:46:14;;;;;;;;;3.75;3.75;;;;;22.53;100.00;100716.03;5084706;27;45411;-79
2022/06/23 04:48:39;;;;;;;;;2.25;2.25;;;;;22.53;100.00;100714.28;5081419;27;45513;-79
2022/06/23 04:51:17;;;;;;;;;3.00;3.00;;;;;22.51;100.00;100721.34;5062100;28;45205;-79
2022/06/23 04:54:02;;;;;;;;;5.00;3.75;;;;;22.49;100.00;100720.47;5079362;28;45330;-79
2022/06/23 04:56:43;;;;;;;;;3.75;3.00;;;;;22.46;100.00;100720.47;5079170;28;45359;-80
2022/06/23 04:59:27;;;;;;;;;3.00;3.00;;;;;22.48;100.00;100726.63;5078359;27;45353;-80
2022/06/23 05:01:56;;;;;;;;;3.75;3.25;;;;;22.53;100.00;100737.16;5078945;28;45693;-79
2022/06/23 05:04:41;;;;;;;;;3.00;3.00;;;;;22.51;100.00;100731.91;5079123;28;45475;-80
2022/06/23 05:07:23;;;;;;;;;5.50;3.00;;;;;22.45;100.00;100720.50;5080203;28;45310;-79
2022/06/23 05:09:54;;;;;;;;;4.00;2.75;;;;;22.41;100.00;100731.06;5076559;27;46106;-81
2022/06/23 05:12:29;;;;;;;;;4.25;3.75;;;;;22.39;100.00;100727.50;5075585;27;45892;-80
2022/06/23 05:15:20;;;;;;;;;3.00;3.00;;;;;22.36;100.00;100724.03;5050951;28;45362;-80
2022/06/23 05:18:14;;;;;;;;;2.50;2.50;;;;;22.37;100.00;100724.00;5077546;27;45470;-81
2022/06/23 05:20:39;;;;;;;;;4.00;3.00;;;;;22.45;100.00;100734.56;5075752;28;46089;-81
2022/06/23 05:23:15;;;;;;;;;3.50;3.00;;;;;22.41;100.00;100727.53;5078063;27;45478;-81
2022/06/23 05:25:46;;;;;;;;;5.75;4.25;;;;;22.45;100.00;100739.81;5042156;28;45722;-80
2022/06/23 05:28:24;;;;;;;;;2.75;2.25;;;;;22.41;100.00;100738.97;5078120;28;45454;-80
2022/06/23 05:30:54;;;;;;;;;5.25;3.00;;;;;22.37;100.00;100747.75;5056208;28;45386;-81
2022/06/23 05:33:46;;;;;;;;;4.00;3.25;;;;;22.29;100.00;100743.41;5079595;27;45451;-81
2022/06/23 05:36:28;;;;;;;;;2.25;2.25;;;;;22.25;100.00;100739.88;5082820;28;45245;-79
2022/06/23 05:39:11;;;;;;;;;6.25;6.25;;;;;22.33;100.00;100747.75;5088116;27;45433;-81
2022/06/23 05:41:42;;;;;;;;;3.00;3.00;;;;;22.37;100.00;100744.25;5079002;27;46353;-81
2022/06/23 05:44:20;;;;;;;;;3.00;3.00;;;;;22.37;100.00;100741.59;5060547;28;45368;-80
2022/06/23 05:46:48;;;;;;;;;3.00;3.00;;;;;22.28;100.00;100716.13;5068467;28;45603;-80
2022/06/23 05:49:17;;;;;;;;;3.75;2.50;;;;;22.39;100.00;100734.56;5077064;27;45590;-81
2022/06/23 05:51:50;;;;;;;;;3.50;2.00;;;;;22.34;100.00;100731.94;5074070;28;47029;-80
2022/06/23 05:54:34;;;;;;;;;4.00;3.00;;;;;22.32;100.00;100724.91;5055632;28;45328;-81
2022/06/23 05:57:21;;;;;;;;;4.50;3.00;;;;;22.14;100.00;100710.94;5071106;28;45432;-78
2022/06/23 06:00:19;;;;;;;;;3.00;2.75;;;;;22.26;100.00;100728.44;5080394;28;45423;-81
2022/06/23 06:03:11;;;;;;;;;4.00;4.00;;;;;22.28;100.00;100734.59;5074502;27;46418;-81
2022/06/23 06:05:41;;;;;;;;;3.25;3.00;;;;;22.25;100.00;100714.41;5081567;27;45455;-82
2022/06/23 06:11:36;;;;;;;;;3.00;2.50;;;;;22.32;100.00;100719.63;5086493;27;45700;-80
2022/06/23 06:14:04;;;;;;;;;3.50;2.00;;;;;22.30;100.00;100713.53;5078258;28;46564;-82
2022/06/23 06:16:30;;;;;;;;;4.25;3.50;;;;;22.29;100.00;100711.75;5076977;28;45477;-79
2022/06/23 06:18:56;;;;;;;;;7.00;4.75;;;;;22.21;100.00;100707.38;5077785;28;45469;-79
2022/06/23 06:21:25;;;;;;;;;5.25;4.00;;;;;22.27;100.00;100699.47;5063065;28;45604;-81
2022/06/23 06:23:53;;;;;;;;;5.25;4.00;;;;;22.34;100.00;100712.59;5097599;27;46209;-80
2022/06/23 06:26:23;;;;;;;;;4.25;4.25;;;;;22.36;100.00;100698.50;5080729;28;45836;-81
2022/06/23 06:28:49;;;;;;;;;7.25;6.00;;;;;22.41;100.00;100709.94;5082317;28;45416;-85
2022/06/23 06:31:33;;;;;;;;;5.00;5.00;;;;;22.38;100.00;100706.44;5066017;28;45339;-82
2022/06/23 06:34:07;;;;;;;;;8.25;5.50;;;;;22.31;100.00;100713.50;5079038;28;46326;-82
2022/06/23 06:36:47;;;;;;;;;6.25;6.25;;;;;22.33;100.00;100719.66;5080193;27;45476;-87
2022/06/23 06:39:18;;;;;;;;;5.00;5.00;;;;;22.42;100.00;100729.28;5077282;28;45489;-79
2022/06/23 06:41:50;;;;;;;;;7.00;7.00;;;;;22.47;100.00;100716.06;5077687;28;45485;-85
2022/06/23 06:44:18;;;;;;;;;6.00;6.00;;;;;22.49;100.00;100709.03;5077874;28;45449;-80
2022/06/23 06:46:45;;;;;;;;;6.25;4.75;;;;;22.55;100.00;100719.56;5078642;27;45705;-83
2022/06/23 06:49:20;;;;;;;;;8.00;5.00;;;;;22.52;100.00;100715.16;5079889;28;45623;-82
2022/06/23 06:51:47;;;;;;;;;4.00;4.00;;;;;22.50;100.00;100711.66;5087911;27;45237;-83
2022/06/23 06:54:22;;;;;;;;;6.00;5.00;;;;;22.51;100.00;100723.09;5086422;27;47709;-83
2022/06/23 06:56:53;;;;;;;;;7.00;6.00;;;;;22.44;100.00;100732.78;5080921;27;45743;-81
2022/06/23 06:59:32;;;;;;;;;6.00;6.00;;;;;22.37;100.00;100728.41;5068910;28;45349;-79
2022/06/23 07:02:19;;;;;;;;;5.50;5.00;;;;;22.21;100.00;100720.56;5076004;27;45501;-84
2022/06/23 07:04:52;;;;;;;;;6.50;5.00;;;;;22.15;100.00;100706.53;5054571;28;46905;-77
2022/06/23 07:07:26;;;;;;;;;5.75;4.75;;;;;22.15;100.00;100720.63;5071770;28;45549;-83
2022/06/23 07:09:59;;;;;;;;;8.00;5.50;;;;;22.14;100.00;100721.50;5080028;28;45493;-81
2022/06/23 07:12:31;;;;;;;;;7.75;4.75;;;;;22.22;100.00;100732.88;5091449;27;45567;-79
2022/06/23 07:15:22;;;;;;;;;5.75;5.50;;;;;22.25;100.00;100727.59;5084890;27;45419;-77
2022/06/23 07:18:32;;;;;;;;;8.75;6.00;;;;;22.34;100.00;100721.41;5058834;28;45114;-82
2022/06/23 07:21:14;;;;;;;;;5.00;4.00;;;;;22.41;100.00;100716.97;5027804;28;45831;-77
2022/06/23 07:23:45;;;;;;;;;8.25;5.00;;;;;22.40;100.00;100712.59;5082105;27;45490;-82
2022/06/23 07:26:32;;;;;;;;;7.00;6.00;;;;;22.41;100.00;100724.88;5076155;28;46074;-79
2022/06/23 07:29:12;;;;;;;;;7.50;4.75;;;;;22.44;100.00;100732.78;5076671;28;45609;-80
2022/06/23 07:31:49;;;;;;;;;4.00;4.00;;;;;22.48;100.00;100738.94;5056251;28;45300;-83
2022/06/23 07:34:17;;;;;;;;;6.25;5.00;;;;;22.49;100.00;100735.41;5056315;28;45425;-84
2022/06/23 07:36:52;;;;;;;;;6.75;5.00;;;;;22.48;100.00;100720.47;5037984;28;45451;-83
2022/06/23 07:39:22;;;;;;;;;6.75;6.50;;;;;22.60;100.00;100751.19;5056887;28;45733;-83
2022/06/23 07:41:59;;;;;;;;;5.00;4.00;;;;;22.62;100.00;100755.56;5042878;27;45347;-85
2022/06/23 07:44:44;;;;;;;;;5.50;4.75;;;;;22.59;100.00;100738.88;5058444;28;45327;-85
2022/06/23 07:47:10;;;;;;;;;7.00;5.75;;;;;22.57;100.00;100731.84;5065595;28;45360;-84
2022/06/23 07:49:35;;;;;;;;;4.50;4.25;;;;;22.73;100.00;100752.88;5093238;27;45274;-83
2022/06/23 07:52:03;;;;;;;;;5.50;5.50;;;;;22.79;100.00;100752.81;5068157;27;45495;-82
2022/06/23 07:54:30;;;;;;;;;7.25;6.00;;;;;22.87;100.00;100751.00;5069326;27;45466;-83
2022/06/23 07:56:56;;;;;;;;;8.00;6.75;;;;;22.93;100.00;100746.56;5068819;28;46050;-87
2022/06/23 07:59:48;;;;;;;;;6.00;5.50;;;;;22.96;100.00;100757.09;5079812;28;45401;-85
2022/06/23 08:02:25;;;;;;;;;8.25;6.25;;;;;22.97;100.00;100751.81;5078659;27;45767;-77
2022/06/23 08:05:03;;;;;;;;;8.25;7.00;;;;;23.01;100.00;100753.53;5084316;27;45353;-82
2022/06/23 08:07:30;;;;;;;;;6.50;6.00;;;;;23.01;100.00;100752.66;5081851;27;46176;-80
2022/06/23 08:10:02;;;;;;;;;5.50;5.00;;;;;23.00;100.00;100754.41;5088746;27;45294;-79
2022/06/23 08:12:55;;;;;;;;;5.50;5.25;;;;;23.02;100.00;100739.44;5071307;28;45545;-81
2022/06/23 08:18:30;;;;;;;;;9.25;7.50;;;;;23.04;100.00;100732.38;5075579;28;45408;-83
2022/06/23 08:21:07;;;;;;;;;5.75;5.75;;;;;23.07;100.00;100741.19;5091557;27;45247;-79
2022/06/23 08:23:42;;;;;;;;;8.25;6.50;;;;;23.10;100.00;100742.03;5070856;28;45466;-87
2022/06/23 08:26:11;;;;;;;;;5.25;5.25;;;;;23.12;100.00;100748.16;5077762;27;45428;-87
2022/06/23 08:28:39;;;;;;;;;6.00;6.00;;;;;23.17;100.00;100749.00;5056896;28;46701;-82
2022/06/23 08:31:05;;;;;;;;;9.00;6.50;;;;;23.22;100.00;100738.41;5100208;27;45374;-75
2022/06/23 08:33:33;;;;;;;;;8.75;7.50;;;;;23.26;100.00;100745.44;5093111;27;45482;-77
2022/06/23 08:36:07;;;;;;;;;9.50;6.50;;;;;23.31;99.38;100743.66;5058232;27;45692;-76
2022/06/23 08:38:55;;;;;;;;;6.00;5.00;;;;;23.36;99.07;100740.97;5047057;28;45300;-81
2022/06/23 08:41:29;;;;;;;;;6.25;6.25;;;;;23.41;98.59;100740.91;5041462;27;45357;-76
2022/06/23 08:44:03;;;;;;;;;5.50;5.00;;;;;23.44;96.85;100738.22;5068776;28;45623;-80
2022/06/23 08:46:52;;;;;;;;;6.00;5.00;;;;;23.46;96.01;100745.25;5075931;27;45386;-78
2022/06/23 08:49:32;;;;;;;;;7.75;5.50;;;;;23.48;95.00;100751.41;5090693;27;46545;-75
2022/06/23 08:52:27;;;;;;;;;8.50;5.25;;;;;23.53;93.68;100755.75;5102920;27;45172;-77
2022/06/23 08:55:15;;;;;;;;;6.50;6.25;;;;;23.52;93.42;100754.00;5067608;27;46154;-79
2022/06/23 08:58:07;;;;;;;;;5.25;5.00;;;;;23.48;91.88;100751.41;5063895;28;45568;-80
2022/06/23 09:00:49;;;;;;;;;6.50;6.00;;;;;23.45;91.89;100751.44;5072820;27;46061;-80
2022/06/23 09:03:39;;;;;;;;;6.50;6.00;;;;;23.43;92.34;100753.22;5078909;28;45633;-80
2022/06/23 09:06:11;;;;;;;;;6.25;6.25;;;;;23.30;91.69;100719.88;5065667;27;45426;-76
2022/06/23 09:08:43;;;;;;;;;5.00;5.00;;;;;23.48;91.87;100743.50;5079255;27;45361;-77
2022/06/23 09:11:25;;;;;;;;;5.00;5.00;;;;;23.53;91.68;100745.19;5079172;27;46147;-77
2022/06/23 09:14:25;;;;;;;;;7.00;5.50;;;;;23.57;91.39;100742.50;5076419;27;45357;-77
2022/06/23 09:16:59;;;;;;;;;5.00;4.50;;;;;23.69;89.69;100738.88;5079105;27;45498;-78
2022/06/23 09:19:41;;;;;;;;;5.00;5.00;;;;;23.68;88.69;100715.97;5079954;27;45392;-77
2022/06/23 09:22:18;;;;;;;;;6.00;6.00;;;;;23.84;88.63;100737.81;5088728;27;45640;-77
2022/06/23 09:25:34;;;;;;;;;5.75;5.75;;;;;23.88;88.49;100742.16;5077753;27;45761;-75
2022/06/23 09:28:28;;;;;;;;;6.00;6.00;;;;;23.91;86.38;100738.63;4959599;28;45370;-76
2022/06/23 09:31:20;;;;;;;;;3.50;3.50;;;;;23.88;87.09;100744.78;5078817;27;45575;-76
2022/06/23 09:34:14;;;;;;;;;8.75;6.00;;;;;23.89;87.11;100749.19;5068874;27;45504;-76
2022/06/23 09:37:10;;;;;;;;;6.00;6.00;;;;;23.78;86.75;100728.19;5079061;27;45581;-82
2022/06/23 09:39:59;;;;;;;;;6.00;6.00;;;;;23.85;86.37;100712.22;5079834;27;45381;-82
2022/06/23 09:43:00;;;;;;;;;5.50;4.75;;;;;23.99;86.34;100733.25;5106535;27;45296;-82
2022/06/23 09:46:02;;;;;;;;;6.25;5.00;;;;;23.90;85.09;100713.06;5086533;27;46563;-84
2022/06/23 09:48:46;;;;;;;;;6.00;4.75;;;;;23.94;85.08;100725.34;5040504;28;45757;-77
2022/06/23 09:51:20;;;;;;;;;5.25;5.00;;;;;23.89;83.80;100725.41;5058278;28;45220;-77
2022/06/23 09:54:19;;;;;;;;;4.25;4.25;;;;;23.86;84.84;100722.81;5084199;27;45230;-76
2022/06/23 09:56:59;;;;;;;;;7.00;5.75;;;;;23.90;85.00;100718.34;5087318;27;46148;-77
2022/06/23 10:00:07;;;;;;;;;9.00;6.25;;;;;23.97;85.21;100724.50;5078697;27;45442;-79
2022/06/23 10:02:47;;;;;;;;;5.75;4.75;;;;;24.01;85.18;100721.78;5046882;28;45432;-78
2022/06/23 10:05:40;;;;;;;;;4.00;4.00;;;;;24.09;85.37;100727.84;5078029;28;45422;-79
2022/06/23 10:08:21;;;;;;;;;4.50;4.50;;;;;24.18;84.97;100726.84;5077108;27;45379;-78
2022/06/23 10:11:06;;;;;;;;;5.75;4.50;;;;;24.25;82.62;100736.44;5077271;28;45239;-80
2022/06/23 10:13:46;;;;;;;;;5.75;5.75;;;;;24.31;81.10;100719.63;5059334;28;45678;-80
2022/06/23 10:16:38;;;;;;;;;4.75;4.75;;;;;24.40;81.52;100722.13;5076608;28;45270;-79
2022/06/23 10:19:22;;;;;;;;;7.25;7.25;;;;;24.49;81.09;100720.25;5076821;27;45642;-79
2022/06/23 10:22:49;;;;;;;;;5.00;5.00;;;;;24.53;80.07;100714.03;5076814;28;45742;-80
2022/06/23 10:25:30;;;;;;;;;8.75;6.25;;;;;24.64;80.01;100722.69;4974487;28;45390;-78
2022/06/23 10:28:14;;;;;;;;;5.25;5.25;;;;;24.73;80.46;100722.56;4974826;28;46081;-78
2022/06/23 10:31:16;;;;;;;;;7.50;6.25;;;;;24.82;78.24;100728.59;5048072;28;46291;-76
2022/06/23 10:34:06;;;;;;;;;4.75;4.75;;;;;24.91;78.53;100730.25;5083612;27;45684;-80
2022/06/23 10:36:50;;;;;;;;;5.50;5.50;;;;;25.00;78.08;100722.16;5079994;27;45383;-77
2022/06/23 10:39:41;;;;;;;;;6.00;4.50;;;;;25.08;76.63;100717.59;5079247;28;45328;-81
2022/06/23 10:42:51;;;;;;;;;5.50;5.50;;;;;25.13;76.73;100715.75;5059034;28;46798;-76
2022/06/23 10:45:33;;;;;;;;;6.25;6.00;;;;;25.16;77.53;100712.16;5014683;28;45757;-77
2022/06/23 10:48:28;;;;;;;;;4.50;4.00;;;;;25.21;77.56;100705.03;5058357;28;45501;-79
2022/06/23 10:51:29;;;;;;;;;8.00;6.00;;;;;25.24;75.49;100704.09;5074686;28;45354;-76
2022/06/23 10:54:20;;;;;;;;;3.75;3.75;;;;;25.27;73.99;100707.53;5076378;28;45471;-77
2022/06/23 10:57:08;;;;;;;;;5.75;5.00;;;;;25.45;71.80;100711.66;5076800;28;45586;-78
2022/06/23 11:00:04;;;;;;;;;7.50;6.75;;;;;25.58;71.50;100708.78;5046133;28;45417;-78
2022/06/23 11:02:30;;;;;;;;;4.75;4.75;;;;;25.61;71.97;100714.91;5076448;27;45244;-79
2022/06/23 11:05:18;;;;;;;;;4.75;4.00;;;;;25.63;71.64;100698.94;5075934;27;45353;-77
2022/06/23 11:08:03;;;;;;;;;5.25;5.25;;;;;25.64;71.91;100703.34;5057564;28;45425;-77
2022/06/23 11:11:00;;;;;;;;;3.25;3.25;;;;;25.76;70.63;100707.53;5076063;28;45280;-77
2022/06/23 11:14:02;;;;;;;;;4.25;4.25;;;;;25.86;70.56;100703.81;5076462;28;45316;-78
2022/06/23 11:16:57;;;;;;;;;4.50;4.50;;;;;25.93;70.43;100696.56;5057316;27;45798;-79
2022/06/23 11:19:53;;;;;;;;;6.25;5.50;;;;;26.01;70.52;100701.72;5076158;28;45393;-78
2022/06/23 11:22:35;;;;;;;;;7.75;5.25;;;;;26.13;69.38;100698.84;5076256;28;45264;-80
2022/06/23 11:25:13;;;;;;;;;6.50;5.75;;;;;26.20;67.61;100691.63;5077796;28;45380;-76
2022/06/23 11:27:54;;;;;;;;;6.00;6.00;;;;;26.16;66.78;100696.13;5082140;28;45303;-78
2022/06/23 11:30:34;;;;;;;;;7.00;6.00;;;;;26.17;67.03;100687.28;5082500;28;45310;-78
2022/06/23 11:33:23;;;;;;;;;5.00;5.00;;;;;26.21;67.57;100691.56;5077669;27;45268;-78
2022/06/23 11:36:05;;;;;;;;;7.00;7.00;;;;;26.22;66.91;100682.72;5080034;28;45364;-80
2022/06/23 11:39:08;;;;;;;;;5.25;4.75;;;;;26.17;67.60;100692.56;5077982;28;46730;-78
2022/06/23 11:42:11;;;;;;;;;8.00;6.00;;;;;26.18;69.15;100680.16;5076919;27;45660;-77
2022/06/23 11:45:16;;;;;;;;;6.00;5.75;;;;;26.21;69.45;100678.31;5057415;28;45386;-77
2022/06/23 11:48:21;;;;;;;;;6.50;5.00;;;;;26.21;67.33;100675.66;5073991;28;45454;-78
2022/06/23 11:51:12;;;;;;;;;4.75;4.25;;;;;26.16;67.15;100666.06;5075562;28;45548;-80
2022/06/23 11:54:16;;;;;;;;;6.25;5.25;;;;;26.18;68.36;100673.09;5031326;28;45604;-79
2022/06/23 11:56:56;;;;;;;;;5.00;5.00;;;;;26.26;67.72;100686.16;5013339;28;45430;-82
2022/06/23 11:59:48;;;;;;;;;5.25;5.25;;;;;26.32;66.76;100669.22;5014216;28;45409;-80
2022/06/23 12:02:14;;;;;;;;;6.00;5.75;;;;;26.34;66.00;100667.41;5063461;27;45505;-80
2022/06/23 12:04:46;;;;;;;;;7.75;5.00;;;;;26.32;65.24;100658.63;5086239;27;45395;-80
2022/06/23 12:07:33;;;;;;;;;7.00;4.25;;;;;26.33;64.06;100661.25;5087810;27;45466;-81
2022/06/23 12:10:05;;;;;;;;;4.50;4.50;;;;;26.39;64.74;100652.28;5089776;27;45281;-84
2022/06/23 12:12:33;;;;;;;;;7.25;4.50;;;;;26.47;65.42;100639.69;5078103;27;46530;-82
2022/06/23 12:15:01;;;;;;;;;5.25;5.25;;;;;26.51;65.48;100635.16;5081829;27;45533;-82
2022/06/23 12:17:32;;;;;;;;;6.50;5.25;;;;;26.57;64.00;100635.88;5072976;27;45383;-80
2022/06/23 12:20:14;;;;;;;;;8.75;6.00;;;;;26.63;64.48;100637.53;5080492;27;45486;-83
2022/06/23 12:22:49;;;;;;;;;7.75;5.75;;;;;26.70;64.61;100636.44;5082639;27;45446;-79
2022/06/23 12:25:24;;;;;;;;;6.25;5.75;;;;;26.71;63.57;100630.22;5106252;27;45326;-80
2022/06/23 12:28:14;;;;;;;;;5.75;5.00;;;;;26.73;62.48;100631.06;5109972;27;45452;-79